Time;durP1;ratioP1;P1;durP2;ratioP2;P2;SDS_P1;SDS_P2;PMS_P1;PMS_P2;Temp;Humidity;BMP_temperature;BMP_pressure;BME280_temperature;BME280_humidity;BME280_pressure;Samples;Min_cycle;Max_cycle;Signal;HPM_P1;HPM_P2
2023/02/09 00:02:22;;;;;;;;;;;;;;;21.91;13.96;99999.63;5056698;28;854;-78
2023/02/09 00:04:48;;;;;;;;;;;;;;;21.69;14.10;99993.06;5056412;28;953;-78
2023/02/09 00:07:13;;;;;;;;;;;;;;;21.76;14.12;99988.25;5087205;28;1067;-78
2023/02/09 00:09:38;;;;;;;;;;;;;;;22.20;13.88;100001.38;5055971;28;1129;-78
2023/02/09 00:14:48;;;;;;;;;;;;;;;22.75;13.12;100003.09;5066944;28;1358;-77
2023/02/09 00:17:13;;;;;;;;;;;;;;;21.60;14.23;100021.75;5076035;28;1984;-78
2023/02/09 00:19:39;;;;;;;;;;;;;;;21.24;14.50;100018.69;5076323;28;831;-78
2023/02/09 00:22:04;;;;;;;;;;;;;;;22.29;13.59;100021.66;5070092;28;1353;-78
2023/02/09 00:24:30;;;;;;;;;;;;;;;22.31;13.66;100007.88;5056265;28;882;-78
2023/02/09 00:26:55;;;;;;;;;;;;;;;21.75;14.20;100014.94;5056032;28;917;-78
2023/02/09 00:29:22;;;;;;;;;;;;;;;22.06;13.97;100021.16;5055827;28;892;-78
2023/02/09 00:31:48;;;;;;;;;;;;;;;21.92;14.04;100018.28;5069740;28;1439;-78
2023/02/09 00:34:14;;;;;;;;;;;;;;;22.20;13.62;100018.41;5064145;28;1451;-78
2023/02/09 00:36:39;;;;;;;;;;;;;;;21.82;13.99;100017.03;5075713;28;955;-78
2023/02/09 00:39:05;;;;;;;;;;;;;;;22.25;13.75;100003.81;5074731;28;1910;-78
2023/02/09 00:44:14;;;;;;;;;;;;;;;22.28;13.48;100011.53;5079853;28;882;-78
2023/02/09 00:46:40;;;;;;;;;;;;;;;21.99;13.50;100010.59;5079995;28;893;-78
2023/02/09 00:49:05;;;;;;;;;;;;;;;21.71;14.01;100005.66;5070349;28;1335;-78
2023/02/09 00:51:31;;;;;;;;;;;;;;;21.67;14.10;100001.97;5060356;28;876;-78
2023/02/09 00:53:56;;;;;;;;;;;;;;;21.78;13.85;100002.81;5092351;28;950;-78
2023/02/09 00:56:22;;;;;;;;;;;;;;;21.74;14.05;100007.66;5077222;28;1371;-78
2023/02/09 00:58:47;;;;;;;;;;;;;;;22.01;13.69;99998.84;5076881;28;1910;-78
2023/02/09 01:01:13;;;;;;;;;;;;;;;22.21;13.36;100011.50;5079956;28;1404;-78
2023/02/09 01:03:39;;;;;;;;;;;;;;;22.02;13.87;100011.81;5043664;28;1103;-78
2023/02/09 01:06:04;;;;;;;;;;;;;;;22.39;13.43;100007.91;5076753;28;1205;-78
2023/02/09 01:08:30;;;;;;;;;;;;;;;21.56;13.98;100001.13;5060155;28;857;-78
2023/02/09 01:10:55;;;;;;;;;;;;;;;21.61;13.82;99997.91;5077047;28;954;-78
2023/02/09 01:13:21;;;;;;;;;;;;;;;21.77;13.93;99995.53;5060386;28;1585;-78
2023/02/09 01:15:46;;;;;;;;;;;;;;;22.33;13.38;99988.47;5076570;28;1464;-78
2023/02/09 01:18:11;;;;;;;;;;;;;;;21.60;13.79;99996.25;5078879;28;1910;-78
2023/02/09 01:20:39;;;;;;;;;;;;;;;21.76;14.00;100007.25;5097172;28;915;-78
2023/02/09 01:23:04;;;;;;;;;;;;;;;21.49;13.90;100004.69;5063731;28;1122;-78
2023/02/09 01:25:30;;;;;;;;;;;;;;;21.96;13.78;99993.56;5097062;28;1160;-78
2023/02/09 01:27:55;;;;;;;;;;;;;;;22.22;13.42;100004.63;5060186;28;1158;-78
2023/02/09 01:30:22;;;;;;;;;;;;;;;21.73;13.87;100000.38;5078640;28;949;-78
2023/02/09 01:32:47;;;;;;;;;;;;;;;22.00;13.33;100002.91;5063717;28;1505;-78
2023/02/09 01:35:13;;;;;;;;;;;;;;;21.84;13.90;100006.09;5058781;28;877;-78
2023/02/09 01:37:38;;;;;;;;;;;;;;;22.26;13.27;100008.28;5059085;28;1980;-78
2023/02/09 01:40:04;;;;;;;;;;;;;;;22.38;13.11;100003.44;5074517;28;1198;-78
2023/02/09 01:42:30;;;;;;;;;;;;;;;22.21;13.12;100005.03;5057391;28;888;-78
2023/02/09 01:45:06;;;;;;;;;;;;;;;22.52;12.95;99992.13;5091127;28;1241;-78
2023/02/09 01:47:32;;;;;;;;;;;;;;;22.39;12.96;100007.91;5058184;28;1344;-78
2023/02/09 01:49:57;;;;;;;;;;;;;;;21.64;13.88;100002.75;5108479;28;1366;-78
2023/02/09 01:52:24;;;;;;;;;;;;;;;22.17;13.39;100013.50;5077677;28;945;-78
2023/02/09 01:54:53;;;;;;;;;;;;;;;22.60;13.19;100007.94;5111075;28;869;-78
2023/02/09 01:57:20;;;;;;;;;;;;;;;21.75;13.67;100012.13;5110983;28;1909;-78
2023/02/09 01:59:46;;;;;;;;;;;;;;;21.99;13.55;100012.63;5093801;28;1210;-78
2023/02/09 02:02:11;;;;;;;;;;;;;;;21.69;13.80;100010.88;5110820;28;869;-78
2023/02/09 02:04:37;;;;;;;;;;;;;;;21.98;13.59;100011.81;5109375;28;1293;-78
2023/02/09 02:07:05;;;;;;;;;;;;;;;21.83;13.40;100012.97;5094093;28;1269;-78
2023/02/09 02:09:31;;;;;;;;;;;;;;;21.91;13.83;100016.63;5078676;28;1123;-78
2023/02/09 02:11:56;;;;;;;;;;;;;;;22.14;13.30;100007.84;5076753;28;902;-78
2023/02/09 02:14:29;;;;;;;;;;;;;;;21.63;13.74;100012.47;5111189;28;1057;-78
2023/02/09 02:17:14;;;;;;;;;;;;;;;21.70;13.79;100001.16;5093804;28;858;-78
2023/02/09 02:19:40;;;;;;;;;;;;;;;22.09;13.46;100017.53;5077878;28;1301;-78
2023/02/09 02:22:05;;;;;;;;;;;;;;;21.98;13.24;100006.16;5096008;28;895;-78
2023/02/09 02:24:34;;;;;;;;;;;;;;;21.81;13.57;100007.72;5096085;28;1035;-78
2023/02/09 02:27:09;;;;;;;;;;;;;;;21.69;13.75;100010.88;5096073;28;934;-78
2023/02/09 02:29:35;;;;;;;;;;;;;;;21.57;13.88;100014.06;5045863;28;1172;-78
2023/02/09 02:32:06;;;;;;;;;;;;;;;21.94;13.62;100021.53;5095858;28;1079;-78
2023/02/09 02:34:34;;;;;;;;;;;;;;;21.68;13.56;100017.75;5078240;28;1352;-78
2023/02/09 02:37:13;;;;;;;;;;;;;;;22.12;13.42;100015.94;5078576;28;1041;-78
2023/02/09 02:39:45;;;;;;;;;;;;;;;21.75;13.43;100012.13;5061737;28;1034;-78
2023/02/09 02:45:18;;;;;;;;;;;;;;;22.41;13.12;100005.47;5095274;28;1021;-78
2023/02/09 02:47:46;;;;;;;;;;;;;;;21.89;13.56;100014.22;5054185;28;1337;-78
2023/02/09 02:50:12;;;;;;;;;;;;;;;22.17;13.12;100012.72;5054863;28;995;-78
2023/02/09 02:52:38;;;;;;;;;;;;;;;22.18;13.08;100006.66;5038210;28;919;-78
2023/02/09 02:55:10;;;;;;;;;;;;;;;21.67;13.74;100001.16;5055037;28;919;-78
2023/02/09 02:57:36;;;;;;;;;;;;;;;22.15;13.21;100010.28;5007813;28;1910;-78
2023/02/09 03:00:11;;;;;;;;;;;;;;;22.34;13.04;100003.44;4999260;28;1034;-78
2023/02/09 03:02:38;;;;;;;;;;;;;;;21.89;13.48;100002.06;5014499;28;1307;-78
2023/02/09 03:05:04;;;;;;;;;;;;;;;22.13;13.11;100000.56;5015115;28;998;-78
2023/02/09 03:07:30;;;;;;;;;;;;;;;21.89;13.41;99996.41;5015052;28;1081;-78
2023/02/09 03:09:55;;;;;;;;;;;;;;;21.95;13.49;99991.97;5015274;28;916;-78
2023/02/09 03:12:38;;;;;;;;;;;;;;;21.44;13.71;99992.94;5015209;28;987;-77
2023/02/09 03:15:29;;;;;;;;;;;;;;;21.44;13.68;99990.09;5014823;28;1023;-78
2023/02/09 03:17:58;;;;;;;;;;;;;;;21.84;13.38;99984.22;4978191;28;2011;-78
2023/02/09 03:20:30;;;;;;;;;;;;;;;21.52;13.72;99978.44;4978850;28;972;-78
2023/02/09 03:22:57;;;;;;;;;;;;;;;22.25;13.22;99975.47;4995414;28;1030;-78
2023/02/09 03:25:22;;;;;;;;;;;;;;;22.24;13.04;99976.69;4979061;28;947;-78
2023/02/09 03:28:00;;;;;;;;;;;;;;;21.67;13.71;99973.63;4994865;28;946;-78
2023/02/09 03:30:25;;;;;;;;;;;;;;;21.67;13.38;99979.31;4989564;28;1532;-78
2023/02/09 03:32:55;;;;;;;;;;;;;;;21.96;13.38;99970.91;4985320;28;1493;-78
2023/02/09 03:35:20;;;;;;;;;;;;;;;22.25;12.89;99966.97;5001704;28;896;-78
2023/02/09 03:37:46;;;;;;;;;;;;;;;21.39;13.72;99970.66;5018084;28;1910;-78
2023/02/09 03:40:11;;;;;;;;;;;;;;;21.98;13.23;99977.81;5033933;28;1089;-78
2023/02/09 03:42:37;;;;;;;;;;;;;;;20.97;14.43;99974.81;5034352;28;1009;-78
2023/02/09 03:45:02;;;;;;;;;;;;;;;21.65;13.45;99972.41;5036091;28;976;-78
2023/02/09 03:47:29;;;;;;;;;;;;;;;21.87;13.64;99970.50;5053957;28;998;-78
2023/02/09 03:49:56;;;;;;;;;;;;;;;21.99;13.28;99955.94;5033640;28;1544;-78
2023/02/09 03:52:22;;;;;;;;;;;;;;;21.68;13.66;99955.44;4994726;28;908;-78
2023/02/09 03:54:47;;;;;;;;;;;;;;;21.94;13.34;99962.00;5005073;28;914;-78
2023/02/09 03:57:13;;;;;;;;;;;;;;;21.46;13.96;99963.03;5014486;28;1985;-78
2023/02/09 03:59:38;;;;;;;;;;;;;;;21.23;13.72;99954.75;5014350;28;908;-78
2023/02/09 04:02:04;;;;;;;;;;;;;;;22.24;13.35;99951.16;5014302;28;1031;-78
2023/02/09 04:04:30;;;;;;;;;;;;;;;21.92;13.38;99944.59;4998075;28;999;-78
2023/02/09 04:06:55;;;;;;;;;;;;;;;22.03;13.25;99948.25;5014246;28;1118;-78
2023/02/09 04:09:21;;;;;;;;;;;;;;;21.35;13.40;99850.88;5031067;28;1444;-78
2023/02/09 04:11:47;;;;;;;;;;;;;;;21.92;13.57;99955.94;5014807;28;1397;-78
2023/02/09 04:14:12;;;;;;;;;;;;;;;21.71;13.82;99956.63;5013730;28;1013;-78
2023/02/09 04:16:38;;;;;;;;;;;;;;;22.23;13.40;99946.72;5014235;28;944;-78
2023/02/09 04:19:03;;;;;;;;;;;;;;;22.00;13.44;99938.53;4997023;28;1977;-79
2023/02/09 04:21:29;;;;;;;;;;;;;;;21.66;13.52;99955.03;5014216;28;926;-78
2023/02/09 04:23:54;;;;;;;;;;;;;;;21.33;14.02;99953.22;5044263;28;932;-77
2023/02/09 04:26:20;;;;;;;;;;;;;;;22.48;12.85;99948.75;5055695;28;1359;-78
2023/02/09 04:28:45;;;;;;;;;;;;;;;22.52;12.81;99955.25;5087406;28;1031;-78
2023/02/09 04:31:11;;;;;;;;;;;;;;;21.83;13.28;99954.28;5055788;28;912;-78
2023/02/09 04:33:36;;;;;;;;;;;;;;;22.18;13.16;99957.66;5093921;28;941;-78
2023/02/09 04:36:02;;;;;;;;;;;;;;;22.16;13.04;99958.03;5093759;28;949;-78
2023/02/09 04:38:27;;;;;;;;;;;;;;;21.68;13.51;99946.13;5077261;28;1894;-78
2023/02/09 04:40:53;;;;;;;;;;;;;;;21.66;13.44;99948.53;5093521;28;1005;-78
2023/02/09 04:43:19;;;;;;;;;;;;;;;22.03;13.61;99942.59;5109226;28;1336;-78
2023/02/09 04:45:44;;;;;;;;;;;;;;;21.55;13.93;99954.16;5076960;28;936;-79
2023/02/09 04:48:10;;;;;;;;;;;;;;;21.88;13.64;99955.09;5093994;28;939;-78
2023/02/09 04:50:36;;;;;;;;;;;;;;;22.12;13.04;99950.72;5093870;28;1008;-78
2023/02/09 04:53:01;;;;;;;;;;;;;;;22.20;13.13;99950.34;5093447;28;1001;-78
2023/02/09 04:55:27;;;;;;;;;;;;;;;21.85;13.26;99957.50;5108674;28;1798;-79
2023/02/09 05:00:36;;;;;;;;;;;;;;;22.23;13.19;99949.56;5113890;28;890;-78
2023/02/09 05:03:02;;;;;;;;;;;;;;;21.95;13.50;99963.63;5114061;28;857;-78
2023/02/09 05:05:27;;;;;;;;;;;;;;;22.19;13.35;99965.75;5080387;28;1063;-78
2023/02/09 05:07:52;;;;;;;;;;;;;;;21.80;13.34;99974.91;5075542;28;865;-78
2023/02/09 05:10:18;;;;;;;;;;;;;;;21.76;13.71;99965.59;5075200;28;904;-78
2023/02/09 05:12:43;;;;;;;;;;;;;;;22.10;13.42;99968.13;5075350;28;913;-78
2023/02/09 05:15:09;;;;;;;;;;;;;;;21.99;13.76;99967.28;5107692;28;939;-78
2023/02/09 05:17:34;;;;;;;;;;;;;;;21.69;13.71;99973.22;5108144;28;1897;-78
2023/02/09 05:20:00;;;;;;;;;;;;;;;22.57;13.17;99963.34;5075716;28;998;-78
2023/02/09 05:22:25;;;;;;;;;;;;;;;21.94;13.66;99964.84;5075477;28;952;-78
2023/02/09 05:24:51;;;;;;;;;;;;;;;21.91;13.63;99974.94;5107946;28;929;-78
2023/02/09 05:27:16;;;;;;;;;;;;;;;21.87;13.42;99965.63;5077037;28;898;-79
2023/02/09 05:29:42;;;;;;;;;;;;;;;22.09;13.31;99966.50;5078789;28;1138;-79
2023/02/09 05:32:07;;;;;;;;;;;;;;;22.15;13.27;99964.09;5078831;28;951;-78
2023/02/09 05:34:32;;;;;;;;;;;;;;;22.03;13.31;99966.06;5111602;28;899;-79
2023/02/09 05:36:58;;;;;;;;;;;;;;;22.47;13.09;99967.00;5078943;28;897;-79
2023/02/09 05:39:23;;;;;;;;;;;;;;;22.54;13.24;99964.19;5078776;28;1913;-79
2023/02/09 05:44:33;;;;;;;;;;;;;;;22.37;13.23;99960.09;5106690;28;916;-78
2023/02/09 05:46:58;;;;;;;;;;;;;;;21.37;14.09;99959.72;5078779;28;878;-78
2023/02/09 05:49:24;;;;;;;;;;;;;;;21.64;13.57;99963.09;5111528;28;959;-78
2023/02/09 05:51:49;;;;;;;;;;;;;;;21.76;13.92;99964.75;5078384;28;895;-78
2023/02/09 05:54:14;;;;;;;;;;;;;;;21.79;13.56;99969.63;5078575;28;862;-78
2023/02/09 05:56:40;;;;;;;;;;;;;;;22.04;13.65;99964.06;5078486;28;942;-78
2023/02/09 05:59:05;;;;;;;;;;;;;;;21.91;13.67;99965.63;5078275;28;1987;-78
2023/02/09 06:01:31;;;;;;;;;;;;;;;21.41;13.88;99971.09;5078028;28;1241;-78
2023/02/09 06:03:56;;;;;;;;;;;;;;;22.54;13.40;99964.19;5078325;28;892;-78
2023/02/09 06:06:22;;;;;;;;;;;;;;;22.01;13.76;99976.19;5078356;28;1564;-78
2023/02/09 06:08:47;;;;;;;;;;;;;;;22.23;13.53;99983.56;5078494;28;1108;-78
2023/02/09 06:11:13;;;;;;;;;;;;;;;21.83;14.03;99982.59;5078167;28;873;-79
2023/02/09 06:13:38;;;;;;;;;;;;;;;21.93;13.82;99969.69;5077927;28;853;-78
2023/02/09 06:16:04;;;;;;;;;;;;;;;22.13;13.73;99975.84;5078166;28;927;-78
2023/02/09 06:18:29;;;;;;;;;;;;;;;22.58;13.20;99976.31;5078110;28;1910;-79
2023/02/09 06:20:55;;;;;;;;;;;;;;;22.27;13.52;99973.03;5076697;28;998;-78
2023/02/09 06:23:21;;;;;;;;;;;;;;;21.85;14.03;99977.34;5077774;28;936;-78
2023/02/09 06:25:46;;;;;;;;;;;;;;;21.96;13.79;99970.91;5078346;28;903;-79
2023/02/09 06:28:11;;;;;;;;;;;;;;;21.94;13.88;99970.50;5077737;28;917;-78
2023/02/09 06:30:37;;;;;;;;;;;;;;;22.67;13.28;99962.53;5077600;28;901;-79
2023/02/09 06:33:02;;;;;;;;;;;;;;;22.39;13.52;99969.03;5077669;28;944;-79
2023/02/09 06:35:28;;;;;;;;;;;;;;;22.24;13.27;99973.84;5077607;28;920;-79
2023/02/09 06:37:56;;;;;;;;;;;;;;;22.22;13.67;99987.59;5076940;28;1893;-78
2023/02/09 06:40:22;;;;;;;;;;;;;;;22.75;13.30;99974.72;5077531;28;922;-78
2023/02/09 06:42:47;;;;;;;;;;;;;;;22.43;13.36;99980.34;5077585;28;886;-79
2023/02/09 06:45:14;;;;;;;;;;;;;;;22.18;13.29;99986.00;5077754;28;991;-78
2023/02/09 06:47:40;;;;;;;;;;;;;;;22.03;13.67;99979.44;5109967;28;900;-78
2023/02/09 06:50:06;;;;;;;;;;;;;;;22.28;13.45;99974.69;5077461;28;972;-78
2023/02/09 06:52:31;;;;;;;;;;;;;;;22.12;13.54;99974.22;5115705;28;970;-79
2023/02/09 06:54:57;;;;;;;;;;;;;;;22.60;13.08;99977.53;5115438;28;998;-78
2023/02/09 06:57:22;;;;;;;;;;;;;;;22.02;13.81;99989.13;5081430;28;1992;-78
2023/02/09 06:59:47;;;;;;;;;;;;;;;22.43;13.35;99980.34;5115604;28;1129;-78
2023/02/09 07:02:13;;;;;;;;;;;;;;;22.53;13.35;99985.22;5115859;28;973;-78
2023/02/09 07:04:38;;;;;;;;;;;;;;;22.69;13.14;99988.50;5115288;28;861;-79
2023/02/09 07:07:04;;;;;;;;;;;;;;;22.50;13.29;99997.41;5115029;28;1375;-78
2023/02/09 07:09:30;;;;;;;;;;;;;;;22.18;13.40;99998.16;5115376;28;987;-79
2023/02/09 07:11:55;;;;;;;;;;;;;;;22.33;13.42;99991.31;5081327;28;1095;-79
2023/02/09 07:14:20;;;;;;;;;;;;;;;22.44;13.53;99988.47;5115223;28;979;-79
2023/02/09 07:16:46;;;;;;;;;;;;;;;22.40;13.29;99992.53;5114906;28;897;-79
2023/02/09 07:19:11;;;;;;;;;;;;;;;22.27;13.52;99995.72;5114695;28;1988;-79
2023/02/09 07:21:37;;;;;;;;;;;;;;;22.22;13.57;99998.94;5114444;28;775;-79
2023/02/09 07:24:02;;;;;;;;;;;;;;;22.42;13.19;99998.59;5086518;28;868;-79
2023/02/09 07:26:28;;;;;;;;;;;;;;;22.56;13.07;99990.09;5076725;28;946;-80
2023/02/09 07:28:53;;;;;;;;;;;;;;;21.88;13.65;99994.78;5076314;28;905;-78
2023/02/09 07:31:18;;;;;;;;;;;;;;;22.77;13.26;99986.47;5076660;28;907;-79
2023/02/09 07:33:44;;;;;;;;;;;;;;;23.05;12.82;99991.34;5076650;28;917;-79
2023/02/09 07:36:10;;;;;;;;;;;;;;;22.68;13.15;99989.69;5075617;28;1349;-79
2023/02/09 07:38:36;;;;;;;;;;;;;;;22.44;13.15;99984.84;5076323;28;1897;-79
2023/02/09 07:41:01;;;;;;;;;;;;;;;22.76;13.01;99988.50;5076519;28;890;-80
2023/02/09 07:43:27;;;;;;;;;;;;;;;22.31;13.62;100007.06;5075738;28;762;-80
2023/02/09 07:45:52;;;;;;;;;;;;;;;22.22;13.70;100015.16;5076216;28;857;-80
2023/02/09 07:48:18;;;;;;;;;;;;;;;22.39;13.30;100013.59;5081104;28;725;-79
2023/02/09 07:50:49;;;;;;;;;;;;;;;22.59;13.07;100018.50;5107149;28;974;-80
2023/02/09 07:53:15;;;;;;;;;;;;;;;23.04;12.89;100015.28;5076173;28;996;-80
2023/02/09 07:55:40;;;;;;;;;;;;;;;22.36;13.44;100027.34;5108659;28;903;-79
2023/02/09 07:58:06;;;;;;;;;;;;;;;22.63;13.12;100007.13;5075669;28;1909;-79
2023/02/09 08:00:31;;;;;;;;;;;;;;;22.63;13.11;100002.25;5072383;28;1244;-79
2023/02/09 08:02:57;;;;;;;;;;;;;;;22.05;13.61;100019.53;5075004;28;1220;-79
2023/02/09 08:05:27;;;;;;;;;;;;;;;22.88;12.73;100015.69;5075282;28;1327;-79
2023/02/09 08:07:52;;;;;;;;;;;;;;;22.17;13.55;100013.50;5069004;28;1233;-79
2023/02/09 08:10:19;;;;;;;;;;;;;;;22.58;12.99;100011.16;5075091;28;1228;-80
2023/02/09 08:13:00;;;;;;;;;;;;;;;22.73;13.11;100016.88;5074829;28;1162;-80
2023/02/09 08:15:29;;;;;;;;;;;;;;;22.52;13.00;100015.63;5076196;28;898;-80
2023/02/09 08:17:55;;;;;;;;;;;;;;;22.26;13.58;100025.28;5075828;28;1973;-79
2023/02/09 08:20:21;;;;;;;;;;;;;;;22.69;12.91;100016.88;5108909;28;957;-80
2023/02/09 08:22:47;;;;;;;;;;;;;;;22.68;13.25;100020.09;5108548;28;912;-80
2023/02/09 08:25:13;;;;;;;;;;;;;;;22.41;13.09;100026.16;5108515;28;928;-80
2023/02/09 08:27:39;;;;;;;;;;;;;;;22.76;13.10;100016.06;5108055;28;949;-80
2023/02/09 08:30:04;;;;;;;;;;;;;;;22.87;12.77;100014.84;5101849;28;1128;-80
2023/02/09 08:32:30;;;;;;;;;;;;;;;22.82;12.90;100009.56;5099063;28;1195;-80
2023/02/09 08:34:55;;;;;;;;;;;;;;;22.30;13.14;100022.47;5074964;28;1232;-80
2023/02/09 08:37:21;;;;;;;;;;;;;;;22.39;13.22;100024.94;5074651;28;1902;-80
2023/02/09 08:39:46;;;;;;;;;;;;;;;22.65;13.21;100013.22;5073875;28;1249;-80
2023/02/09 08:42:12;;;;;;;;;;;;;;;23.05;12.83;100023.41;5073970;28;920;-80
2023/02/09 08:44:37;;;;;;;;;;;;;;;22.80;12.97;100023.38;5075330;28;895;-80
2023/02/09 08:47:02;;;;;;;;;;;;;;;22.67;12.89;100027.00;5075064;28;873;-80
2023/02/09 08:49:28;;;;;;;;;;;;;;;22.59;13.02;100034.72;5093139;28;916;-80
2023/02/09 08:51:53;;;;;;;;;;;;;;;22.55;13.22;100036.72;5093301;28;1115;-80
2023/02/09 08:54:19;;;;;;;;;;;;;;;22.55;13.13;100039.56;5093482;28;973;-80
2023/02/09 08:56:44;;;;;;;;;;;;;;;22.35;13.45;100048.41;5093295;28;1056;-79
2023/02/09 08:59:10;;;;;;;;;;;;;;;21.89;13.68;100050.25;5084055;28;1913;-80
2023/02/09 09:01:35;;;;;;;;;;;;;;;22.44;13.21;100050.88;5084980;28;1235;-80
2023/02/09 09:04:00;;;;;;;;;;;;;;;22.97;12.87;100033.13;5086580;28;1248;-80
2023/02/09 09:06:26;;;;;;;;;;;;;;;22.66;13.27;100037.53;5085362;28;1240;-80
2023/02/09 09:08:51;;;;;;;;;;;;;;;22.49;13.18;100052.53;5087775;28;1291;-80
2023/02/09 09:11:17;;;;;;;;;;;;;;;22.50;13.36;100037.94;5087762;28;1217;-80
2023/02/09 09:13:42;;;;;;;;;;;;;;;22.87;12.75;100046.06;5096092;28;1062;-80
2023/02/09 09:16:18;;;;;;;;;;;;;;;22.65;13.09;100041.59;5094573;28;1240;-80
2023/02/09 09:18:43;;;;;;;;;;;;;;;22.92;12.95;100041.25;5096112;28;1909;-80
2023/02/09 09:21:09;;;;;;;;;;;;;;;23.00;12.74;100042.84;5082000;28;847;-80
2023/02/09 09:23:35;;;;;;;;;;;;;;;22.92;12.92;100038.41;5077974;28;834;-80
2023/02/09 09:26:01;;;;;;;;;;;;;;;23.24;12.64;100046.91;5078319;28;931;-81
2023/02/09 09:28:26;;;;;;;;;;;;;;;22.54;13.09;100040.78;5111096;28;932;-80
2023/02/09 09:30:52;;;;;;;;;;;;;;;22.81;13.09;100038.38;5111500;28;1206;-80
2023/02/09 09:33:17;;;;;;;;;;;;;;;22.68;13.02;100037.94;5079158;28;883;-80
2023/02/09 09:35:43;;;;;;;;;;;;;;;22.62;13.08;100045.22;5078629;28;876;-80
2023/02/09 09:38:08;;;;;;;;;;;;;;;21.90;13.84;100032.03;5078229;28;1977;-80
2023/02/09 09:40:34;;;;;;;;;;;;;;;22.44;13.29;100027.38;5078605;28;972;-80
2023/02/09 09:43:01;;;;;;;;;;;;;;;22.65;13.28;100027.41;5110944;28;837;-80
2023/02/09 09:45:27;;;;;;;;;;;;;;;23.03;12.97;100025.00;5111335;28;870;-80
2023/02/09 09:47:52;;;;;;;;;;;;;;;22.55;13.15;100025.38;5078997;28;908;-79
2023/02/09 09:50:19;;;;;;;;;;;;;;;22.66;13.04;100020.50;5111109;28;948;-80
2023/02/09 09:53:05;;;;;;;;;;;;;;;23.04;13.03;100020.94;5110803;28;931;-80
2023/02/09 09:55:30;;;;;;;;;;;;;;;22.70;13.10;100012.81;5096437;28;952;-80
2023/02/09 09:57:57;;;;;;;;;;;;;;;22.42;13.61;100001.44;5095868;28;1905;-80
2023/02/09 10:00:24;;;;;;;;;;;;;;;22.00;13.91;100014.25;5096389;28;877;-80
2023/02/09 10:02:49;;;;;;;;;;;;;;;22.48;13.66;100006.28;5096136;28;875;-80
2023/02/09 10:05:18;;;;;;;;;;;;;;;21.85;13.84;100008.50;5095968;28;992;-80
2023/02/09 10:07:44;;;;;;;;;;;;;;;22.86;13.10;100004.72;5095761;28;1071;-79
2023/02/09 10:10:22;;;;;;;;;;;;;;;22.53;13.49;99991.72;5079095;28;924;-80
2023/02/09 10:12:48;;;;;;;;;;;;;;;22.80;13.23;99989.31;5078288;28;925;-80
2023/02/09 10:15:30;;;;;;;;;;;;;;;22.38;13.75;100003.44;5079028;28;959;-80
2023/02/09 10:17:56;;;;;;;;;;;;;;;22.17;13.99;100002.16;5058824;28;1917;-80
2023/02/09 10:20:39;;;;;;;;;;;;;;;22.49;13.77;99998.63;5059212;28;966;-80
2023/02/09 10:23:05;;;;;;;;;;;;;;;22.12;14.11;100002.56;5075668;28;886;-80
2023/02/09 10:25:38;;;;;;;;;;;;;;;22.43;13.49;99994.53;5075711;28;1048;-79
2023/02/09 10:28:05;;;;;;;;;;;;;;;22.27;13.94;99998.56;5075252;28;841;-80
2023/02/09 10:30:30;;;;;;;;;;;;;;;22.59;13.34;100000.66;5075375;28;1161;-80
2023/02/09 10:32:57;;;;;;;;;;;;;;;22.61;13.60;99998.22;5064045;28;1013;-79
2023/02/09 10:35:42;;;;;;;;;;;;;;;22.07;14.20;99992.41;5057891;28;915;-80
2023/02/09 10:38:11;;;;;;;;;;;;;;;22.06;14.21;99995.63;5089438;28;1918;-80
2023/02/09 10:40:38;;;;;;;;;;;;;;;22.12;13.95;99994.06;5089513;28;871;-80
2023/02/09 10:43:04;;;;;;;;;;;;;;;22.35;13.89;99990.88;5089893;28;954;-79
2023/02/09 10:45:45;;;;;;;;;;;;;;;22.44;13.57;99987.66;5090232;28;958;-80
2023/02/09 10:48:10;;;;;;;;;;;;;;;22.03;14.31;99991.59;5090254;28;879;-80
2023/02/09 10:50:48;;;;;;;;;;;;;;;22.24;14.14;99988.03;5071720;28;985;-80
2023/02/09 10:53:24;;;;;;;;;;;;;;;22.56;13.63;99990.09;5057230;28;932;-79
2023/02/09 10:55:50;;;;;;;;;;;;;;;22.59;13.65;99994.97;5057275;28;863;-80
2023/02/09 10:58:25;;;;;;;;;;;;;;;22.73;13.71;99994.16;5056726;28;1910;-79
2023/02/09 11:01:05;;;;;;;;;;;;;;;22.65;14.00;99993.34;5089214;28;892;-79
2023/02/09 11:03:30;;;;;;;;;;;;;;;22.60;13.66;99991.72;5056750;28;1063;-80
2023/02/09 11:05:57;;;;;;;;;;;;;;;22.68;13.71;99986.06;5056972;28;1082;-80
2023/02/09 11:08:23;;;;;;;;;;;;;;;21.88;14.43;99994.78;5057596;28;888;-79
2023/02/09 11:10:54;;;;;;;;;;;;;;;22.06;14.26;100002.13;5089650;28;895;-80
2023/02/09 11:13:24;;;;;;;;;;;;;;;22.48;14.01;99983.59;5057152;28;906;-79
2023/02/09 11:15:55;;;;;;;;;;;;;;;22.27;14.29;99995.72;5056773;28;851;-80
2023/02/09 11:18:23;;;;;;;;;;;;;;;21.94;14.21;99988.31;5089189;28;1914;-80
2023/02/09 11:20:54;;;;;;;;;;;;;;;22.01;14.14;99987.53;5089450;28;931;-80
2023/02/09 11:23:35;;;;;;;;;;;;;;;22.19;14.13;99987.63;5088569;28;980;-80
2023/02/09 11:26:01;;;;;;;;;;;;;;;22.32;14.29;99981.16;5055663;28;844;-79
2023/02/09 11:28:29;;;;;;;;;;;;;;;21.83;14.45;99978.97;5055953;28;958;-80
2023/02/09 11:31:13;;;;;;;;;;;;;;;22.32;14.11;99975.47;5055819;28;839;-79
2023/02/09 11:33:45;;;;;;;;;;;;;;;21.97;14.40;99970.53;5056030;28;827;-80
2023/02/09 11:36:13;;;;;;;;;;;;;;;22.72;13.75;99970.66;5056428;28;848;-80
2023/02/09 11:38:40;;;;;;;;;;;;;;;22.07;14.53;99983.06;5056248;28;1976;-80
2023/02/09 11:42:42;;;;;;;;;;;;;;;22.28;13.95;99974.69;5088482;28;832;-79
2023/02/09 11:43:52;;;;;;;;;;;;;;;22.41;13.95;99982.78;5083296;28;874;-80
2023/02/09 11:46:18;;;;;;;;;;;;;;;22.59;13.87;99983.63;5056764;28;920;-79
2023/02/09 11:48:49;;;;;;;;;;;;;;;22.83;13.67;99977.13;5088478;28;997;-79
2023/02/09 11:51:21;;;;;;;;;;;;;;;22.19;14.24;99979.91;5093861;28;1033;-79
2023/02/09 11:53:49;;;;;;;;;;;;;;;22.95;13.73;99961.75;5077090;28;955;-79
2023/02/09 11:56:15;;;;;;;;;;;;;;;22.42;14.36;99956.84;5093924;28;1105;-79
2023/02/09 11:58:52;;;;;;;;;;;;;;;22.23;14.26;99960.91;5077095;28;1906;-79
2023/02/09 12:01:23;;;;;;;;;;;;;;;22.19;14.19;99960.06;5076932;28;947;-78
2023/02/09 12:03:55;;;;;;;;;;;;;;;23.10;13.57;99962.53;5076933;28;907;-79
2023/02/09 12:06:21;;;;;;;;;;;;;;;22.61;14.08;99958.50;5077093;28;1261;-77
2023/02/09 12:08:47;;;;;;;;;;;;;;;22.72;14.14;99953.63;5076916;28;919;-78
2023/02/09 12:11:21;;;;;;;;;;;;;;;22.79;13.98;99952.81;5076914;28;1381;-78
2023/02/09 12:14:12;;;;;;;;;;;;;;;22.42;14.30;99944.69;5093993;28;1043;-79
2023/02/09 12:16:42;;;;;;;;;;;;;;;22.31;14.15;99947.53;5033184;28;1128;-79
2023/02/09 12:19:24;;;;;;;;;;;;;;;22.83;13.84;99948.75;5033212;28;1914;-79
2023/02/09 12:21:49;;;;;;;;;;;;;;;22.11;14.26;99944.25;5003827;28;1055;-78
2023/02/09 12:24:31;;;;;;;;;;;;;;;22.44;14.36;99942.28;4994054;28;892;-78
2023/02/09 12:26:57;;;;;;;;;;;;;;;22.63;14.29;99944.69;4994003;28;970;-81
2023/02/09 12:29:33;;;;;;;;;;;;;;;22.73;14.14;99943.88;5010086;28;913;-78
2023/02/09 12:32:07;;;;;;;;;;;;;;;22.86;13.70;99942.28;4977623;28;1044;-78
2023/02/09 12:34:43;;;;;;;;;;;;;;;22.72;13.91;99953.63;4993894;28;1048;-79
2023/02/09 12:37:11;;;;;;;;;;;;;;;22.54;14.37;99944.31;5012809;28;1447;-79
2023/02/09 12:39:36;;;;;;;;;;;;;;;22.08;14.46;99942.19;4997489;28;1985;-82
2023/02/09 12:42:02;;;;;;;;;;;;;;;22.53;14.29;99948.34;4997825;28;1097;-81
2023/02/09 12:44:27;;;;;;;;;;;;;;;22.63;14.45;99945.50;4997948;28;995;-80
2023/02/09 12:46:54;;;;;;;;;;;;;;;21.95;14.76;99943.78;4998035;28;995;-81
2023/02/09 12:49:20;;;;;;;;;;;;;;;22.22;14.77;99947.91;5014186;28;968;-80
2023/02/09 12:51:49;;;;;;;;;;;;;;;22.47;14.32;99952.81;5000733;28;975;-80
2023/02/09 12:54:26;;;;;;;;;;;;;;;23.15;13.76;99953.59;5048770;28;949;-81
2023/02/09 12:56:52;;;;;;;;;;;;;;;22.16;14.80;99955.19;5059915;28;961;-80
2023/02/09 12:59:18;;;;;;;;;;;;;;;22.75;14.25;99952.00;5059342;28;1918;-80
2023/02/09 13:02:03;;;;;;;;;;;;;;;23.08;13.93;99939.44;5059530;28;910;-80
2023/02/09 13:04:43;;;;;;;;;;;;;;;22.32;14.61;99947.09;5059153;28;873;-80
2023/02/09 13:07:21;;;;;;;;;;;;;;;22.09;14.89;99943.81;5091675;28;1031;-80
2023/02/09 13:09:47;;;;;;;;;;;;;;;22.08;14.66;99945.03;5091542;28;1047;-80
2023/02/09 13:12:14;;;;;;;;;;;;;;;22.36;14.51;99947.13;5091894;28;893;-80
2023/02/09 13:14:41;;;;;;;;;;;;;;;22.71;14.31;99940.66;5091594;28;951;-80